»·PEaware :: N9401L KSBA-KOXR

N9401L :: KSBA-KOXR

FLIGHT INFORMATION

Flight Status: Arrived
Operator: Privately registered:
United States
More flights under this callsign
Pilot: Juan D. (11620)
Aircraft: PIPER PA-28R-201 ARROW
(P28R)
More flights by this aircraft type
Origin: KSBA Santa Barbara Mun
United States
Destination: KOXR Oxnard
United States
More flights between these airports :: More routes between these airports
Route: +KWANG CMA
File this flight plan on PilotEdge
Remarks: TEC route SBAP35
Altitude:
(Current/Filed)
3,000ft
Speed:
(Current/Filed)
130kts
Departed: 22-Sep-18 11:35 AM
Arrived: 22-Sep-18 12:12 PM
Distance/Time
Traveled:
35nm/0:37
Distance/Time
To Go:
Arrived

Flight Plot

Page will automatically refresh every two minutes.


Map Options




Map Legend


Flown Route
Filed Route
Departure Airport
Arrival Airport
Navaid (VOR, NDB)
Fix

Horizontal Profiles

Position Reports

Time Latitude Longitude Heading Altitude Ground
Speed
22-Sep-18 11:28 34.432568 -119.835091 71 16ft 0kts
22-Sep-18 11:29 34.432568 -119.835091 71 16ft 0kts
22-Sep-18 11:30 34.432568 -119.835091 71 16ft 0kts
22-Sep-18 11:31 34.432568 -119.835091 71 16ft 0kts
22-Sep-18 11:32 34.432568 -119.835091 71 16ft 0kts
22-Sep-18 11:33 34.432568 -119.835091 71 16ft 0kts
22-Sep-18 11:34 34.432568 -119.835091 71 16ft 0kts
22-Sep-18 11:35 34.430888 -119.839191 247 16ft 19kts
22-Sep-18 11:36 34.430732 -119.839668 248 16ft 0kts
22-Sep-18 11:37 34.427365 -119.839314 164 16ft 76kts
22-Sep-18 11:38 34.405989 -119.832417 163 1367ft 81kts
22-Sep-18 11:39 34.385063 -119.825644 163 2671ft 84kts
22-Sep-18 11:40 34.357225 -119.816830 164 2987ft 129kts
22-Sep-18 11:41 34.332898 -119.789888 99 2984ft 134kts
22-Sep-18 11:42 34.325723 -119.745553 100 2983ft 134kts
22-Sep-18 11:43 34.318398 -119.700744 99 2982ft 136kts
22-Sep-18 11:44 34.311035 -119.656068 99 3007ft 136kts
22-Sep-18 11:45 34.303548 -119.610714 99 3005ft 138kts
22-Sep-18 11:46 34.296078 -119.565001 99 3002ft 139kts
22-Sep-18 11:47 34.288709 -119.518622 99 2999ft 141kts
22-Sep-18 11:48 34.281582 -119.471875 99 2998ft 142kts
22-Sep-18 11:49 34.274041 -119.424761 102 2996ft 142kts
22-Sep-18 11:50 34.265432 -119.377967 102 2995ft 143kts
22-Sep-18 11:51 34.257143 -119.331685 102 2993ft 143kts
22-Sep-18 11:52 34.248900 -119.284668 102 2992ft 143kts
22-Sep-18 11:53 34.246293 -119.239615 80 3427ft 119kts
22-Sep-18 11:54 34.250936 -119.201207 80 4024ft 125kts
22-Sep-18 11:55 34.256386 -119.156094 80 4005ft 140kts
22-Sep-18 11:56 34.261911 -119.109581 80 4004ft 139kts
22-Sep-18 11:57 34.267411 -119.063589 80 4004ft 138kts
22-Sep-18 11:58 34.273067 -119.018374 79 4004ft 134kts
22-Sep-18 11:59 34.278773 -118.974163 79 4004ft 133kts
22-Sep-18 12:00 34.276498 -118.930746 110 4004ft 134kts
22-Sep-18 12:01 34.262409 -118.889222 110 4004ft 134kts
22-Sep-18 12:02 34.248293 -118.847417 110 4004ft 134kts
22-Sep-18 12:03 34.232400 -118.807270 146 3993ft 137kts
22-Sep-18 12:04 34.205464 -118.830362 238 3989ft 135kts
22-Sep-18 12:05 34.194905 -118.872517 272 3761ft 139kts
22-Sep-18 12:06 34.197365 -118.919214 274 3458ft 139kts
22-Sep-18 12:07 34.197534 -118.965978 277 3156ft 139kts
22-Sep-18 12:08 34.197684 -119.012476 269 2888ft 140kts
22-Sep-18 12:09 34.198438 -119.057060 272 2633ft 138kts
22-Sep-18 12:10 34.200005 -119.103947 267 2060ft 140kts
22-Sep-18 12:11 34.199704 -119.148741 274 1013ft 90kts
22-Sep-18 12:12 34.200425 -119.167114 266 598ft 75kts
22-Sep-18 12:13 34.200648 -119.194618 268 164ft 58kts
22-Sep-18 12:14 34.199940 -119.203126 163 45ft 0kts
22-Sep-18 12:15 34.199940 -119.203126 163 45ft 0kts
22-Sep-18 12:16 34.199940 -119.203126 163 45ft 0kts
22-Sep-18 12:17 34.198676 -119.198048 40 45ft 9kts

Navigation Log

Ident Type
Flight plan parsing failed, navigation log unavailable